sensor_id;sensor_type;location;lat;lon;timestamp;P1;durP1;ratioP1;P2;durP2;ratioP2
22715;SDS011;11525;51.152;4.456;2022-11-20T00:00:55;31.90;;;24.13;;
22715;SDS011;11525;51.152;4.456;2022-11-20T00:03:21;33.90;;;24.77;;
22715;SDS011;11525;51.152;4.456;2022-11-20T00:05:47;31.15;;;23.50;;
22715;SDS011;11525;51.152;4.456;2022-11-20T00:08:13;32.25;;;23.15;;
22715;SDS011;11525;51.152;4.456;2022-11-20T00:10:39;31.73;;;22.73;;
22715;SDS011;11525;51.152;4.456;2022-11-20T00:13:06;31.83;;;23.95;;
22715;SDS011;11525;51.152;4.456;2022-11-20T00:15:32;31.13;;;24.33;;
22715;SDS011;11525;51.152;4.456;2022-11-20T00:18:01;33.30;;;23.45;;
22715;SDS011;11525;51.152;4.456;2022-11-20T00:20:27;32.22;;;23.92;;
22715;SDS011;11525;51.152;4.456;2022-11-20T00:22:53;33.38;;;25.25;;
22715;SDS011;11525;51.152;4.456;2022-11-20T00:25:19;29.60;;;22.33;;
22715;SDS011;11525;51.152;4.456;2022-11-20T00:27:45;31.52;;;23.50;;
22715;SDS011;11525;51.152;4.456;2022-11-20T00:30:11;33.15;;;24.13;;
22715;SDS011;11525;51.152;4.456;2022-11-20T00:32:40;31.77;;;22.88;;
22715;SDS011;11525;51.152;4.456;2022-11-20T00:35:06;33.85;;;24.27;;
22715;SDS011;11525;51.152;4.456;2022-11-20T00:37:32;31.35;;;23.50;;
22715;SDS011;11525;51.152;4.456;2022-11-20T00:39:58;29.95;;;23.20;;
22715;SDS011;11525;51.152;4.456;2022-11-20T00:42:24;33.15;;;23.90;;
22715;SDS011;11525;51.152;4.456;2022-11-20T00:44:50;30.45;;;23.10;;
22715;SDS011;11525;51.152;4.456;2022-11-20T00:47:16;31.40;;;24.17;;
22715;SDS011;11525;51.152;4.456;2022-11-20T00:49:42;31.88;;;24.33;;
22715;SDS011;11525;51.152;4.456;2022-11-20T00:52:08;32.33;;;23.58;;
22715;SDS011;11525;51.152;4.456;2022-11-20T00:54:34;31.63;;;24.75;;
22715;SDS011;11525;51.152;4.456;2022-11-20T00:57:00;36.60;;;23.48;;
22715;SDS011;11525;51.152;4.456;2022-11-20T00:59:27;29.13;;;21.77;;
22715;SDS011;11525;51.152;4.456;2022-11-20T01:01:53;32.67;;;23.17;;
22715;SDS011;11525;51.152;4.456;2022-11-20T01:04:19;31.25;;;23.13;;
22715;SDS011;11525;51.152;4.456;2022-11-20T01:06:45;29.80;;;22.83;;
22715;SDS011;11525;51.152;4.456;2022-11-20T01:09:12;32.83;;;24.45;;
22715;SDS011;11525;51.152;4.456;2022-11-20T01:11:42;29.75;;;23.08;;
22715;SDS011;11525;51.152;4.456;2022-11-20T01:14:10;31.02;;;24.48;;
22715;SDS011;11525;51.152;4.456;2022-11-20T01:16:39;33.72;;;24.25;;
22715;SDS011;11525;51.152;4.456;2022-11-20T01:19:09;34.20;;;25.42;;
22715;SDS011;11525;51.152;4.456;2022-11-20T01:21:40;32.15;;;24.20;;
22715;SDS011;11525;51.152;4.456;2022-11-20T01:24:09;36.88;;;24.02;;
22715;SDS011;11525;51.152;4.456;2022-11-20T01:26:39;33.00;;;23.88;;
22715;SDS011;11525;51.152;4.456;2022-11-20T01:29:09;39.22;;;22.98;;
22715;SDS011;11525;51.152;4.456;2022-11-20T01:31:42;30.58;;;22.60;;
22715;SDS011;11525;51.152;4.456;2022-11-20T01:34:09;29.52;;;23.85;;
22715;SDS011;11525;51.152;4.456;2022-11-20T01:36:38;33.33;;;24.98;;
22715;SDS011;11525;51.152;4.456;2022-11-20T01:39:07;32.10;;;25.15;;
22715;SDS011;11525;51.152;4.456;2022-11-20T01:41:36;31.95;;;24.40;;
22715;SDS011;11525;51.152;4.456;2022-11-20T01:44:22;31.63;;;24.50;;
22715;SDS011;11525;51.152;4.456;2022-11-20T01:47:08;32.10;;;24.92;;
22715;SDS011;11525;51.152;4.456;2022-11-20T01:49:40;31.52;;;23.75;;
22715;SDS011;11525;51.152;4.456;2022-11-20T01:52:39;32.83;;;23.95;;
22715;SDS011;11525;51.152;4.456;2022-11-20T01:55:14;33.28;;;25.13;;
22715;SDS011;11525;51.152;4.456;2022-11-20T01:57:44;36.78;;;25.85;;
22715;SDS011;11525;51.152;4.456;2022-11-20T02:00:13;31.80;;;23.98;;
22715;SDS011;11525;51.152;4.456;2022-11-20T02:02:42;33.83;;;25.10;;
22715;SDS011;11525;51.152;4.456;2022-11-20T02:08:02;34.08;;;25.45;;
22715;SDS011;11525;51.152;4.456;2022-11-20T02:10:29;35.50;;;25.27;;
22715;SDS011;11525;51.152;4.456;2022-11-20T02:12:57;38.17;;;26.00;;
22715;SDS011;11525;51.152;4.456;2022-11-20T02:15:42;35.25;;;24.67;;
22715;SDS011;11525;51.152;4.456;2022-11-20T02:18:10;34.78;;;26.05;;
22715;SDS011;11525;51.152;4.456;2022-11-20T02:20:37;36.00;;;26.50;;
22715;SDS011;11525;51.152;4.456;2022-11-20T02:25:51;35.97;;;25.60;;
22715;SDS011;11525;51.152;4.456;2022-11-20T02:28:19;35.90;;;26.33;;
22715;SDS011;11525;51.152;4.456;2022-11-20T02:30:45;38.42;;;27.85;;
22715;SDS011;11525;51.152;4.456;2022-11-20T02:33:12;37.35;;;27.02;;
22715;SDS011;11525;51.152;4.456;2022-11-20T02:35:39;38.22;;;27.02;;
22715;SDS011;11525;51.152;4.456;2022-11-20T02:38:08;35.03;;;25.88;;
22715;SDS011;11525;51.152;4.456;2022-11-20T02:40:34;37.92;;;27.58;;
22715;SDS011;11525;51.152;4.456;2022-11-20T02:43:00;32.03;;;25.20;;
22715;SDS011;11525;51.152;4.456;2022-11-20T02:45:26;34.88;;;26.35;;
22715;SDS011;11525;51.152;4.456;2022-11-20T02:47:52;38.67;;;27.48;;
22715;SDS011;11525;51.152;4.456;2022-11-20T02:50:18;35.17;;;26.45;;
22715;SDS011;11525;51.152;4.456;2022-11-20T02:52:45;36.65;;;26.45;;
22715;SDS011;11525;51.152;4.456;2022-11-20T02:55:11;38.47;;;27.52;;
22715;SDS011;11525;51.152;4.456;2022-11-20T02:57:38;38.60;;;27.67;;
22715;SDS011;11525;51.152;4.456;2022-11-20T03:00:06;36.03;;;26.77;;
22715;SDS011;11525;51.152;4.456;2022-11-20T03:02:35;38.75;;;26.88;;
22715;SDS011;11525;51.152;4.456;2022-11-20T03:05:01;34.63;;;26.73;;
22715;SDS011;11525;51.152;4.456;2022-11-20T03:07:37;42.45;;;27.85;;
22715;SDS011;11525;51.152;4.456;2022-11-20T03:14:12;40.50;;;28.23;;
22715;SDS011;11525;51.152;4.456;2022-11-20T03:16:47;38.58;;;28.27;;
22715;SDS011;11525;51.152;4.456;2022-11-20T03:19:13;40.05;;;28.52;;
22715;SDS011;11525;51.152;4.456;2022-11-20T03:21:39;37.35;;;27.42;;
22715;SDS011;11525;51.152;4.456;2022-11-20T03:24:05;41.50;;;28.73;;
22715;SDS011;11525;51.152;4.456;2022-11-20T03:26:32;44.58;;;29.65;;
22715;SDS011;11525;51.152;4.456;2022-11-20T03:28:59;45.83;;;31.25;;
22715;SDS011;11525;51.152;4.456;2022-11-20T03:31:29;43.15;;;28.83;;
22715;SDS011;11525;51.152;4.456;2022-11-20T03:33:57;45.35;;;30.02;;
22715;SDS011;11525;51.152;4.456;2022-11-20T03:36:24;36.17;;;26.75;;
22715;SDS011;11525;51.152;4.456;2022-11-20T03:38:54;42.17;;;29.02;;
22715;SDS011;11525;51.152;4.456;2022-11-20T03:41:22;44.88;;;30.92;;
22715;SDS011;11525;51.152;4.456;2022-11-20T03:43:51;49.67;;;33.65;;
22715;SDS011;11525;51.152;4.456;2022-11-20T03:46:25;47.70;;;32.17;;
22715;SDS011;11525;51.152;4.456;2022-11-20T03:48:52;54.50;;;34.67;;
22715;SDS011;11525;51.152;4.456;2022-11-20T03:51:19;56.45;;;35.17;;
22715;SDS011;11525;51.152;4.456;2022-11-20T03:53:53;51.25;;;35.28;;
22715;SDS011;11525;51.152;4.456;2022-11-20T03:56:23;60.75;;;38.35;;
22715;SDS011;11525;51.152;4.456;2022-11-20T03:58:54;53.85;;;36.40;;
22715;SDS011;11525;51.152;4.456;2022-11-20T04:01:22;58.40;;;36.22;;
22715;SDS011;11525;51.152;4.456;2022-11-20T04:03:56;58.33;;;36.50;;
22715;SDS011;11525;51.152;4.456;2022-11-20T04:06:24;56.00;;;34.92;;
22715;SDS011;11525;51.152;4.456;2022-11-20T04:08:54;59.42;;;36.10;;
22715;SDS011;11525;51.152;4.456;2022-11-20T04:11:26;56.20;;;35.60;;
22715;SDS011;11525;51.152;4.456;2022-11-20T04:13:58;56.95;;;35.75;;
22715;SDS011;11525;51.152;4.456;2022-11-20T04:16:25;54.85;;;35.33;;
22715;SDS011;11525;51.152;4.456;2022-11-20T04:18:54;61.70;;;37.35;;
22715;SDS011;11525;51.152;4.456;2022-11-20T04:21:22;61.13;;;38.25;;
22715;SDS011;11525;51.152;4.456;2022-11-20T04:23:49;57.25;;;36.95;;
22715;SDS011;11525;51.152;4.456;2022-11-20T04:26:18;62.10;;;37.50;;
22715;SDS011;11525;51.152;4.456;2022-11-20T04:28:48;58.72;;;36.85;;
22715;SDS011;11525;51.152;4.456;2022-11-20T04:31:16;57.22;;;36.80;;
22715;SDS011;11525;51.152;4.456;2022-11-20T04:33:45;63.85;;;37.30;;
22715;SDS011;11525;51.152;4.456;2022-11-20T04:36:15;58.42;;;36.55;;
22715;SDS011;11525;51.152;4.456;2022-11-20T04:38:55;55.40;;;35.45;;
22715;SDS011;11525;51.152;4.456;2022-11-20T04:41:23;61.47;;;38.55;;
22715;SDS011;11525;51.152;4.456;2022-11-20T04:43:52;68.28;;;38.03;;
22715;SDS011;11525;51.152;4.456;2022-11-20T04:46:24;58.75;;;38.05;;
22715;SDS011;11525;51.152;4.456;2022-11-20T04:48:51;62.95;;;38.65;;
22715;SDS011;11525;51.152;4.456;2022-11-20T04:51:24;61.30;;;36.85;;
22715;SDS011;11525;51.152;4.456;2022-11-20T04:53:50;59.95;;;37.95;;
22715;SDS011;11525;51.152;4.456;2022-11-20T04:56:17;61.13;;;40.28;;
22715;SDS011;11525;51.152;4.456;2022-11-20T04:58:43;61.65;;;37.08;;
22715;SDS011;11525;51.152;4.456;2022-11-20T05:01:13;56.65;;;36.80;;
22715;SDS011;11525;51.152;4.456;2022-11-20T05:03:42;58.63;;;37.53;;
22715;SDS011;11525;51.152;4.456;2022-11-20T05:06:12;60.65;;;38.03;;
22715;SDS011;11525;51.152;4.456;2022-11-20T05:08:43;61.65;;;39.08;;
22715;SDS011;11525;51.152;4.456;2022-11-20T05:14:20;68.72;;;39.88;;
22715;SDS011;11525;51.152;4.456;2022-11-20T05:16:47;62.35;;;39.60;;
22715;SDS011;11525;51.152;4.456;2022-11-20T05:19:16;61.67;;;37.10;;
22715;SDS011;11525;51.152;4.456;2022-11-20T05:21:45;63.25;;;39.58;;
22715;SDS011;11525;51.152;4.456;2022-11-20T05:24:11;65.07;;;38.80;;
22715;SDS011;11525;51.152;4.456;2022-11-20T05:26:38;59.45;;;36.25;;
22715;SDS011;11525;51.152;4.456;2022-11-20T05:29:12;68.15;;;40.33;;
22715;SDS011;11525;51.152;4.456;2022-11-20T05:31:40;65.60;;;38.53;;
22715;SDS011;11525;51.152;4.456;2022-11-20T05:34:06;64.88;;;38.30;;
22715;SDS011;11525;51.152;4.456;2022-11-20T05:36:34;65.03;;;39.25;;
22715;SDS011;11525;51.152;4.456;2022-11-20T05:39:03;65.97;;;39.15;;
22715;SDS011;11525;51.152;4.456;2022-11-20T05:41:29;63.75;;;37.50;;
22715;SDS011;11525;51.152;4.456;2022-11-20T05:43:56;63.10;;;39.33;;
22715;SDS011;11525;51.152;4.456;2022-11-20T05:46:23;62.25;;;37.97;;
22715;SDS011;11525;51.152;4.456;2022-11-20T05:48:49;60.25;;;38.08;;
22715;SDS011;11525;51.152;4.456;2022-11-20T05:51:17;60.03;;;37.28;;
22715;SDS011;11525;51.152;4.456;2022-11-20T05:53:47;63.85;;;40.10;;
22715;SDS011;11525;51.152;4.456;2022-11-20T05:56:14;66.60;;;39.60;;
22715;SDS011;11525;51.152;4.456;2022-11-20T05:58:45;65.35;;;40.38;;
22715;SDS011;11525;51.152;4.456;2022-11-20T06:01:12;66.75;;;41.15;;
22715;SDS011;11525;51.152;4.456;2022-11-20T06:03:39;65.03;;;38.67;;
22715;SDS011;11525;51.152;4.456;2022-11-20T06:06:09;65.30;;;40.30;;
22715;SDS011;11525;51.152;4.456;2022-11-20T06:08:35;62.47;;;38.17;;
22715;SDS011;11525;51.152;4.456;2022-11-20T06:11:05;60.70;;;38.78;;
22715;SDS011;11525;51.152;4.456;2022-11-20T06:13:34;60.17;;;38.70;;
22715;SDS011;11525;51.152;4.456;2022-11-20T06:16:00;61.22;;;38.95;;
22715;SDS011;11525;51.152;4.456;2022-11-20T06:18:27;65.85;;;39.50;;
22715;SDS011;11525;51.152;4.456;2022-11-20T06:21:39;70.32;;;40.42;;
22715;SDS011;11525;51.152;4.456;2022-11-20T06:23:47;63.67;;;39.28;;
22715;SDS011;11525;51.152;4.456;2022-11-20T06:26:18;72.45;;;40.75;;
22715;SDS011;11525;51.152;4.456;2022-11-20T06:28:46;71.20;;;41.40;;
22715;SDS011;11525;51.152;4.456;2022-11-20T06:31:13;63.15;;;37.90;;
22715;SDS011;11525;51.152;4.456;2022-11-20T06:33:40;56.83;;;35.55;;
22715;SDS011;11525;51.152;4.456;2022-11-20T06:36:07;73.03;;;42.67;;
22715;SDS011;11525;51.152;4.456;2022-11-20T06:38:35;65.03;;;39.55;;
22715;SDS011;11525;51.152;4.456;2022-11-20T06:41:01;63.40;;;38.78;;
22715;SDS011;11525;51.152;4.456;2022-11-20T06:43:28;69.85;;;42.42;;
22715;SDS011;11525;51.152;4.456;2022-11-20T06:45:55;68.47;;;46.20;;
22715;SDS011;11525;51.152;4.456;2022-11-20T06:48:22;62.80;;;39.25;;
22715;SDS011;11525;51.152;4.456;2022-11-20T06:50:49;64.60;;;40.97;;
22715;SDS011;11525;51.152;4.456;2022-11-20T06:53:15;62.08;;;38.95;;
22715;SDS011;11525;51.152;4.456;2022-11-20T06:55:42;66.57;;;41.28;;
22715;SDS011;11525;51.152;4.456;2022-11-20T06:58:13;63.88;;;38.80;;
22715;SDS011;11525;51.152;4.456;2022-11-20T07:00:40;62.83;;;40.17;;
22715;SDS011;11525;51.152;4.456;2022-11-20T07:03:06;62.83;;;39.63;;
22715;SDS011;11525;51.152;4.456;2022-11-20T07:05:34;58.95;;;37.97;;
22715;SDS011;11525;51.152;4.456;2022-11-20T07:08:00;63.25;;;39.67;;
22715;SDS011;11525;51.152;4.456;2022-11-20T07:10:27;57.00;;;39.05;;
22715;SDS011;11525;51.152;4.456;2022-11-20T07:12:54;58.80;;;39.50;;
22715;SDS011;11525;51.152;4.456;2022-11-20T07:15:23;57.92;;;37.67;;
22715;SDS011;11525;51.152;4.456;2022-11-20T07:17:50;58.15;;;38.63;;
22715;SDS011;11525;51.152;4.456;2022-11-20T07:20:16;57.22;;;39.72;;
22715;SDS011;11525;51.152;4.456;2022-11-20T07:22:53;64.72;;;38.50;;
22715;SDS011;11525;51.152;4.456;2022-11-20T07:25:22;63.97;;;38.33;;
22715;SDS011;11525;51.152;4.456;2022-11-20T07:27:52;59.80;;;38.55;;
22715;SDS011;11525;51.152;4.456;2022-11-20T07:30:18;60.72;;;37.17;;
22715;SDS011;11525;51.152;4.456;2022-11-20T07:32:51;62.03;;;37.28;;
22715;SDS011;11525;51.152;4.456;2022-11-20T07:35:18;59.65;;;36.75;;
22715;SDS011;11525;51.152;4.456;2022-11-20T07:37:45;63.33;;;38.22;;
22715;SDS011;11525;51.152;4.456;2022-11-20T07:40:15;63.70;;;37.47;;
22715;SDS011;11525;51.152;4.456;2022-11-20T07:42:51;60.70;;;37.92;;
22715;SDS011;11525;51.152;4.456;2022-11-20T07:45:22;64.22;;;38.88;;
22715;SDS011;11525;51.152;4.456;2022-11-20T07:51:14;59.92;;;36.47;;
22715;SDS011;11525;51.152;4.456;2022-11-20T07:53:46;55.22;;;35.72;;
22715;SDS011;11525;51.152;4.456;2022-11-20T07:56:15;58.95;;;37.08;;
22715;SDS011;11525;51.152;4.456;2022-11-20T07:58:44;58.50;;;36.83;;
22715;SDS011;11525;51.152;4.456;2022-11-20T08:01:10;62.10;;;38.55;;
22715;SDS011;11525;51.152;4.456;2022-11-20T08:03:37;60.22;;;37.60;;
22715;SDS011;11525;51.152;4.456;2022-11-20T08:06:03;56.40;;;36.15;;
22715;SDS011;11525;51.152;4.456;2022-11-20T08:08:29;57.80;;;36.63;;
22715;SDS011;11525;51.152;4.456;2022-11-20T08:10:58;61.45;;;37.90;;
22715;SDS011;11525;51.152;4.456;2022-11-20T08:14:00;58.95;;;35.97;;
22715;SDS011;11525;51.152;4.456;2022-11-20T08:16:38;56.70;;;37.22;;
22715;SDS011;11525;51.152;4.456;2022-11-20T08:19:05;58.72;;;36.55;;
22715;SDS011;11525;51.152;4.456;2022-11-20T08:21:37;59.75;;;35.78;;
22715;SDS011;11525;51.152;4.456;2022-11-20T08:24:03;60.45;;;36.63;;
22715;SDS011;11525;51.152;4.456;2022-11-20T08:26:30;59.65;;;35.75;;
22715;SDS011;11525;51.152;4.456;2022-11-20T08:28:56;55.40;;;34.28;;
22715;SDS011;11525;51.152;4.456;2022-11-20T08:31:23;56.15;;;35.15;;
22715;SDS011;11525;51.152;4.456;2022-11-20T08:33:50;64.68;;;38.38;;
22715;SDS011;11525;51.152;4.456;2022-11-20T08:36:17;58.67;;;36.80;;
22715;SDS011;11525;51.152;4.456;2022-11-20T08:38:47;61.38;;;37.10;;
22715;SDS011;11525;51.152;4.456;2022-11-20T08:41:14;65.63;;;37.17;;
22715;SDS011;11525;51.152;4.456;2022-11-20T08:43:55;60.50;;;36.50;;
22715;SDS011;11525;51.152;4.456;2022-11-20T08:46:25;62.53;;;38.05;;
22715;SDS011;11525;51.152;4.456;2022-11-20T08:48:52;64.57;;;36.42;;
22715;SDS011;11525;51.152;4.456;2022-11-20T08:51:21;67.60;;;37.92;;
22715;SDS011;11525;51.152;4.456;2022-11-20T08:53:53;64.40;;;37.05;;
22715;SDS011;11525;51.152;4.456;2022-11-20T08:56:20;63.80;;;36.53;;
22715;SDS011;11525;51.152;4.456;2022-11-20T08:58:49;64.78;;;35.58;;
22715;SDS011;11525;51.152;4.456;2022-11-20T09:01:17;64.80;;;36.42;;
22715;SDS011;11525;51.152;4.456;2022-11-20T09:03:44;61.88;;;34.72;;
22715;SDS011;11525;51.152;4.456;2022-11-20T09:06:13;64.03;;;38.22;;
22715;SDS011;11525;51.152;4.456;2022-11-20T09:08:45;69.10;;;37.55;;
22715;SDS011;11525;51.152;4.456;2022-11-20T09:11:22;65.30;;;37.03;;
22715;SDS011;11525;51.152;4.456;2022-11-20T09:13:51;63.65;;;35.45;;
22715;SDS011;11525;51.152;4.456;2022-11-20T09:16:23;66.28;;;36.42;;
22715;SDS011;11525;51.152;4.456;2022-11-20T09:18:50;68.25;;;36.03;;
22715;SDS011;11525;51.152;4.456;2022-11-20T09:21:24;61.97;;;36.33;;
22715;SDS011;11525;51.152;4.456;2022-11-20T09:23:52;68.85;;;38.13;;
22715;SDS011;11525;51.152;4.456;2022-11-20T09:26:19;68.05;;;38.00;;
22715;SDS011;11525;51.152;4.456;2022-11-20T09:28:45;68.57;;;37.17;;
22715;SDS011;11525;51.152;4.456;2022-11-20T09:31:21;69.97;;;38.15;;
22715;SDS011;11525;51.152;4.456;2022-11-20T09:33:52;63.67;;;36.70;;
22715;SDS011;11525;51.152;4.456;2022-11-20T09:36:19;65.07;;;36.50;;
22715;SDS011;11525;51.152;4.456;2022-11-20T09:38:45;70.28;;;37.63;;
22715;SDS011;11525;51.152;4.456;2022-11-20T09:44:38;64.32;;;36.92;;
22715;SDS011;11525;51.152;4.456;2022-11-20T09:52:49;69.22;;;36.35;;
22715;SDS011;11525;51.152;4.456;2022-11-20T09:55:32;75.22;;;38.40;;
22715;SDS011;11525;51.152;4.456;2022-11-20T09:58:16;72.07;;;37.10;;
22715;SDS011;11525;51.152;4.456;2022-11-20T10:00:51;80.78;;;39.97;;
22715;SDS011;11525;51.152;4.456;2022-11-20T10:07:17;81.53;;;38.53;;
22715;SDS011;11525;51.152;4.456;2022-11-20T10:10:35;85.15;;;39.72;;
22715;SDS011;11525;51.152;4.456;2022-11-20T10:19:26;91.45;;;40.40;;
22715;SDS011;11525;51.152;4.456;2022-11-20T10:22:21;91.35;;;40.42;;
22715;SDS011;11525;51.152;4.456;2022-11-20T10:28:05;97.10;;;42.08;;
22715;SDS011;11525;51.152;4.456;2022-11-20T10:30:40;102.05;;;43.55;;
22715;SDS011;11525;51.152;4.456;2022-11-20T10:33:21;106.57;;;43.35;;
22715;SDS011;11525;51.152;4.456;2022-11-20T10:35:55;102.32;;;44.40;;
22715;SDS011;11525;51.152;4.456;2022-11-20T10:38:40;110.10;;;45.13;;
22715;SDS011;11525;51.152;4.456;2022-11-20T10:41:16;105.38;;;43.50;;
22715;SDS011;11525;51.152;4.456;2022-11-20T10:43:50;101.93;;;45.70;;
22715;SDS011;11525;51.152;4.456;2022-11-20T10:46:43;96.47;;;44.25;;
22715;SDS011;11525;51.152;4.456;2022-11-20T10:49:16;101.00;;;42.97;;
22715;SDS011;11525;51.152;4.456;2022-11-20T10:54:47;105.43;;;41.22;;
22715;SDS011;11525;51.152;4.456;2022-11-20T11:00:17;102.13;;;42.15;;
22715;SDS011;11525;51.152;4.456;2022-11-20T11:02:50;100.70;;;41.85;;
22715;SDS011;11525;51.152;4.456;2022-11-20T11:08:39;92.30;;;40.63;;
22715;SDS011;11525;51.152;4.456;2022-11-20T11:11:23;87.88;;;39.22;;
22715;SDS011;11525;51.152;4.456;2022-11-20T11:14:04;87.90;;;39.22;;
22715;SDS011;11525;51.152;4.456;2022-11-20T11:16:34;84.95;;;37.80;;
22715;SDS011;11525;51.152;4.456;2022-11-20T11:19:11;85.03;;;38.58;;
22715;SDS011;11525;51.152;4.456;2022-11-20T11:21:38;81.00;;;35.70;;
22715;SDS011;11525;51.152;4.456;2022-11-20T11:27:00;73.97;;;35.53;;
22715;SDS011;11525;51.152;4.456;2022-11-20T11:29:35;78.60;;;36.17;;
22715;SDS011;11525;51.152;4.456;2022-11-20T11:32:03;75.22;;;36.00;;
22715;SDS011;11525;51.152;4.456;2022-11-20T11:34:39;74.38;;;37.63;;
22715;SDS011;11525;51.152;4.456;2022-11-20T11:37:17;76.90;;;37.53;;
22715;SDS011;11525;51.152;4.456;2022-11-20T11:39:48;75.75;;;35.63;;
22715;SDS011;11525;51.152;4.456;2022-11-20T11:42:18;69.55;;;34.03;;
22715;SDS011;11525;51.152;4.456;2022-11-20T11:44:46;65.63;;;32.97;;
22715;SDS011;11525;51.152;4.456;2022-11-20T11:47:43;68.60;;;33.90;;
22715;SDS011;11525;51.152;4.456;2022-11-20T12:00:45;67.07;;;31.15;;
22715;SDS011;11525;51.152;4.456;2022-11-20T12:03:33;65.07;;;31.88;;
22715;SDS011;11525;51.152;4.456;2022-11-20T12:06:13;62.03;;;29.50;;
22715;SDS011;11525;51.152;4.456;2022-11-20T12:08:51;57.60;;;29.83;;
22715;SDS011;11525;51.152;4.456;2022-11-20T12:11:45;59.05;;;28.95;;
22715;SDS011;11525;51.152;4.456;2022-11-20T12:14:37;49.78;;;26.75;;
22715;SDS011;11525;51.152;4.456;2022-11-20T12:17:22;49.20;;;28.27;;
22715;SDS011;11525;51.152;4.456;2022-11-20T12:19:49;51.83;;;27.00;;
22715;SDS011;11525;51.152;4.456;2022-11-20T12:25:12;52.60;;;25.63;;
22715;SDS011;11525;51.152;4.456;2022-11-20T12:48:35;22.83;;;7.88;;
22715;SDS011;11525;51.152;4.456;2022-11-20T13:05:21;13.18;;;6.43;;
22715;SDS011;11525;51.152;4.456;2022-11-20T13:07:56;13.88;;;8.02;;
22715;SDS011;11525;51.152;4.456;2022-11-20T13:10:28;14.48;;;6.95;;
22715;SDS011;11525;51.152;4.456;2022-11-20T13:13:07;20.98;;;7.15;;
22715;SDS011;11525;51.152;4.456;2022-11-20T13:18:39;16.90;;;6.30;;
22715;SDS011;11525;51.152;4.456;2022-11-20T13:21:14;13.18;;;6.47;;
22715;SDS011;11525;51.152;4.456;2022-11-20T13:23:41;11.25;;;5.97;;
22715;SDS011;11525;51.152;4.456;2022-11-20T13:26:15;16.23;;;7.65;;
22715;SDS011;11525;51.152;4.456;2022-11-20T13:28:47;16.58;;;6.85;;
22715;SDS011;11525;51.152;4.456;2022-11-20T13:31:28;12.50;;;6.38;;
22715;SDS011;11525;51.152;4.456;2022-11-20T13:33:57;11.35;;;6.53;;
22715;SDS011;11525;51.152;4.456;2022-11-20T13:36:28;15.75;;;6.57;;
22715;SDS011;11525;51.152;4.456;2022-11-20T13:38:55;16.27;;;6.28;;
22715;SDS011;11525;51.152;4.456;2022-11-20T13:44:08;13.68;;;5.78;;
22715;SDS011;11525;51.152;4.456;2022-11-20T13:46:36;10.32;;;6.90;;
22715;SDS011;11525;51.152;4.456;2022-11-20T13:49:08;11.23;;;6.75;;
22715;SDS011;11525;51.152;4.456;2022-11-20T13:51:43;16.50;;;7.20;;
22715;SDS011;11525;51.152;4.456;2022-11-20T14:02:32;11.60;;;7.65;;
22715;SDS011;11525;51.152;4.456;2022-11-20T14:04:59;16.58;;;7.47;;
22715;SDS011;11525;51.152;4.456;2022-11-20T14:07:36;16.48;;;8.40;;
22715;SDS011;11525;51.152;4.456;2022-11-20T14:10:05;12.63;;;7.93;;
22715;SDS011;11525;51.152;4.456;2022-11-20T14:12:32;15.88;;;7.50;;
22715;SDS011;11525;51.152;4.456;2022-11-20T14:14:58;17.38;;;7.72;;
22715;SDS011;11525;51.152;4.456;2022-11-20T14:20:13;11.63;;;6.75;;
22715;SDS011;11525;51.152;4.456;2022-11-20T14:22:49;13.93;;;7.22;;
22715;SDS011;11525;51.152;4.456;2022-11-20T14:27:58;13.82;;;6.53;;
22715;SDS011;11525;51.152;4.456;2022-11-20T14:30:50;12.95;;;6.75;;
22715;SDS011;11525;51.152;4.456;2022-11-20T14:33:15;11.13;;;7.00;;
22715;SDS011;11525;51.152;4.456;2022-11-20T14:35:50;7.85;;;6.55;;
22715;SDS011;11525;51.152;4.456;2022-11-20T14:38:20;9.38;;;6.03;;
22715;SDS011;11525;51.152;4.456;2022-11-20T14:40:49;8.20;;;6.40;;
22715;SDS011;11525;51.152;4.456;2022-11-20T14:43:28;12.10;;;6.50;;
22715;SDS011;11525;51.152;4.456;2022-11-20T14:45:58;8.10;;;6.30;;
22715;SDS011;11525;51.152;4.456;2022-11-20T14:48:31;10.32;;;7.07;;
22715;SDS011;11525;51.152;4.456;2022-11-20T14:51:10;11.55;;;5.97;;
22715;SDS011;11525;51.152;4.456;2022-11-20T14:53:37;11.02;;;6.60;;
22715;SDS011;11525;51.152;4.456;2022-11-20T14:56:03;8.98;;;5.50;;
22715;SDS011;11525;51.152;4.456;2022-11-20T14:58:31;7.05;;;5.72;;
22715;SDS011;11525;51.152;4.456;2022-11-20T15:00:59;9.63;;;6.38;;
22715;SDS011;11525;51.152;4.456;2022-11-20T15:03:31;10.65;;;6.43;;
22715;SDS011;11525;51.152;4.456;2022-11-20T15:06:05;8.50;;;6.38;;
22715;SDS011;11525;51.152;4.456;2022-11-20T15:08:33;8.02;;;6.60;;
22715;SDS011;11525;51.152;4.456;2022-11-20T15:10:59;8.20;;;7.30;;
22715;SDS011;11525;51.152;4.456;2022-11-20T15:13:29;7.70;;;6.03;;
22715;SDS011;11525;51.152;4.456;2022-11-20T15:15:58;9.52;;;6.63;;
22715;SDS011;11525;51.152;4.456;2022-11-20T15:18:28;8.30;;;6.85;;
22715;SDS011;11525;51.152;4.456;2022-11-20T15:20:55;10.23;;;6.93;;
22715;SDS011;11525;51.152;4.456;2022-11-20T15:23:23;7.18;;;6.20;;
22715;SDS011;11525;51.152;4.456;2022-11-20T15:25:49;7.78;;;6.50;;
22715;SDS011;11525;51.152;4.456;2022-11-20T15:28:17;7.65;;;6.88;;
22715;SDS011;11525;51.152;4.456;2022-11-20T15:30:46;9.80;;;6.57;;
22715;SDS011;11525;51.152;4.456;2022-11-20T15:33:14;8.45;;;6.70;;
22715;SDS011;11525;51.152;4.456;2022-11-20T15:35:41;9.73;;;6.70;;
22715;SDS011;11525;51.152;4.456;2022-11-20T15:38:08;9.10;;;7.20;;
22715;SDS011;11525;51.152;4.456;2022-11-20T15:40:35;11.55;;;6.68;;
22715;SDS011;11525;51.152;4.456;2022-11-20T15:43:01;10.27;;;6.20;;
22715;SDS011;11525;51.152;4.456;2022-11-20T15:45:49;9.60;;;5.65;;
22715;SDS011;11525;51.152;4.456;2022-11-20T15:48:44;10.40;;;7.50;;
22715;SDS011;11525;51.152;4.456;2022-11-20T15:53:44;13.07;;;6.47;;
22715;SDS011;11525;51.152;4.456;2022-11-20T15:56:14;11.40;;;8.00;;
22715;SDS011;11525;51.152;4.456;2022-11-20T15:58:40;12.98;;;7.38;;
22715;SDS011;11525;51.152;4.456;2022-11-20T16:01:17;10.98;;;7.63;;
22715;SDS011;11525;51.152;4.456;2022-11-20T16:03:45;16.45;;;8.85;;
22715;SDS011;11525;51.152;4.456;2022-11-20T16:06:14;16.63;;;9.05;;
22715;SDS011;11525;51.152;4.456;2022-11-20T16:08:41;16.23;;;8.38;;
22715;SDS011;11525;51.152;4.456;2022-11-20T16:11:14;15.15;;;7.57;;
22715;SDS011;11525;51.152;4.456;2022-11-20T16:13:43;14.63;;;8.52;;
22715;SDS011;11525;51.152;4.456;2022-11-20T16:16:32;19.98;;;9.18;;
22715;SDS011;11525;51.152;4.456;2022-11-20T16:19:05;16.38;;;8.18;;
22715;SDS011;11525;51.152;4.456;2022-11-20T16:21:35;12.70;;;7.80;;
22715;SDS011;11525;51.152;4.456;2022-11-20T16:24:07;16.15;;;7.20;;
22715;SDS011;11525;51.152;4.456;2022-11-20T16:26:42;19.30;;;8.15;;
22715;SDS011;11525;51.152;4.456;2022-11-20T16:29:08;18.42;;;7.95;;
22715;SDS011;11525;51.152;4.456;2022-11-20T16:31:35;23.85;;;8.18;;
22715;SDS011;11525;51.152;4.456;2022-11-20T16:34:02;25.02;;;7.95;;
22715;SDS011;11525;51.152;4.456;2022-11-20T16:36:30;23.23;;;7.65;;
22715;SDS011;11525;51.152;4.456;2022-11-20T16:39:00;26.23;;;7.22;;
22715;SDS011;11525;51.152;4.456;2022-11-20T16:41:32;19.58;;;6.63;;
22715;SDS011;11525;51.152;4.456;2022-11-20T16:44:02;16.73;;;6.20;;
22715;SDS011;11525;51.152;4.456;2022-11-20T16:46:35;20.88;;;6.78;;